Time;durP1;ratioP1;P1;durP2;ratioP2;P2;SDS_P1;SDS_P2;PMS_P1;PMS_P2;Temp;Humidity;BMP_temperature;BMP_pressure;BME280_temperature;BME280_humidity;BME280_pressure;Samples;Min_cycle;Max_cycle;Signal;HPM_P1;HPM_P2
2022/04/08 00:02:41;;;;;;;5.80;2.20;;;;;;;16.53;37.37;97877.44;7712422;32;37775;-74
2022/04/08 00:06:57;;;;;;;5.95;3.50;;;;;;;16.67;37.59;97887.19;7737214;32;40111;-74
2022/04/08 00:11:13;;;;;;;7.25;3.03;;;;;;;16.62;38.85;97901.19;7738745;32;39951;-75
2022/04/08 00:15:33;;;;;;;8.77;2.78;;;;;;;16.45;39.74;97897.69;7737417;32;38038;-75
2022/04/08 00:19:49;;;;;;;5.32;2.67;;;;;;;16.47;39.25;97900.06;7739083;32;37286;-74
2022/04/08 00:24:07;;;;;;;3.53;2.33;;;;;;;16.34;39.54;97893.88;7738953;32;39346;-74
2022/04/08 00:28:28;;;;;;;5.97;2.55;;;;;;;16.22;40.38;97880.25;7738852;32;40693;-74
2022/04/08 00:32:44;;;;;;;3.28;2.37;;;;;;;16.28;40.18;97884.28;7738757;32;38691;-73
2022/04/08 00:37:01;;;;;;;6.68;3.75;;;;;;;16.32;40.46;97877.72;7738581;32;37349;-74
2022/04/08 00:41:17;;;;;;;6.50;3.85;;;;;;;15.95;41.48;97883.53;7717054;32;39269;-74
2022/04/08 00:45:33;;;;;;;6.97;3.97;;;;;;;15.68;42.65;97857.69;7711888;32;39832;-73
2022/04/08 00:49:51;;;;;;;6.82;3.40;;;;;;;15.54;42.83;97863.59;7711519;32;38659;-74
2022/04/08 00:54:08;;;;;;;9.52;3.70;;;;;;;15.58;42.10;97877.41;7712693;32;36535;-74
2022/04/08 00:58:25;;;;;;;7.97;3.72;;;;;;;15.09;44.40;97878.44;7711775;32;40621;-73
2022/04/08 01:02:41;;;;;;;6.03;3.30;;;;;;;15.20;43.76;97876.78;7711676;32;40013;-75
2022/04/08 01:06:58;;;;;;;9.73;4.18;;;;;;;15.20;43.70;97886.97;7711504;32;38834;-74
2022/04/08 01:11:14;;;;;;;5.10;2.97;;;;;;;14.99;43.72;97907.16;7711465;32;37267;-74
2022/04/08 01:15:30;;;;;;;6.60;3.10;;;;;;;15.13;43.46;97930.69;7711626;32;39239;-73
2022/04/08 01:19:46;;;;;;;7.85;3.22;;;;;;;14.88;44.66;97944.44;7711615;32;40752;-74
2022/04/08 01:24:03;;;;;;;4.78;2.92;;;;;;;14.63;45.36;97940.94;7711489;32;37732;-74
2022/04/08 01:28:19;;;;;;;3.65;2.42;;;;;;;14.68;45.45;97970.03;7711464;32;37802;-73
2022/04/08 01:32:36;;;;;;;7.03;2.75;;;;;;;14.67;45.24;97971.19;7731925;32;40106;-73
2022/04/08 01:36:52;;;;;;;4.90;2.70;;;;;;;14.69;45.14;97957.94;7737818;32;41293;-74
2022/04/08 01:41:08;;;;;;;6.12;3.08;;;;;;;14.83;44.41;97963.88;7738026;32;37652;-74
2022/04/08 01:45:24;;;;;;;4.37;2.83;;;;;;;14.82;44.36;97976.00;7736658;32;36854;-74
2022/04/08 01:49:41;;;;;;;6.82;2.97;;;;;;;14.75;44.11;97986.75;7737749;32;39918;-74
2022/04/08 01:53:57;;;;;;;7.55;2.97;;;;;;;14.42;45.21;97993.09;7737637;32;39910;-74
2022/04/08 01:58:13;;;;;;;5.85;2.83;;;;;;;14.70;44.55;97997.94;7737772;32;38624;-73
2022/04/08 02:02:29;;;;;;;5.28;2.87;;;;;;;14.98;43.88;98007.06;7736930;32;37681;-74
2022/04/08 02:06:45;;;;;;;4.65;2.40;;;;;;;14.67;44.23;98012.34;7737553;32;39405;-74
2022/04/08 02:11:01;;;;;;;7.55;2.95;;;;;;;14.68;44.34;98006.53;7737396;32;40100;-74
2022/04/08 02:15:25;;;;;;;4.18;2.70;;;;;;;14.73;44.27;98024.66;7737376;32;38160;-74
2022/04/08 02:19:42;;;;;;;5.95;2.75;;;;;;;14.01;45.78;98041.41;7737661;32;37115;-74
2022/04/08 02:23:59;;;;;;;3.35;2.28;;;;;;;13.93;45.79;98045.84;7737493;32;39056;-73
2022/04/08 02:28:15;;;;;;;2.35;1.62;;;;;;;13.76;46.88;98056.94;7722077;32;40731;-73
2022/04/08 02:32:31;;;;;;;2.05;1.60;;;;;;;13.32;49.44;98062.75;7709231;32;38636;-74
2022/04/08 02:36:47;;;;;;;5.00;1.73;;;;;;;13.55;49.79;98065.16;7710517;32;37194;-77
2022/04/08 02:41:03;;;;;;;5.22;1.75;;;;;;;13.89;48.88;98058.59;7710447;32;39365;-76
2022/04/08 02:45:19;;;;;;;3.37;1.80;;;;;;;13.46;50.00;98057.81;7710232;32;40082;-75
2022/04/08 02:49:35;;;;;;;2.65;1.65;;;;;;;13.49;50.38;98079.06;7710055;32;37948;-75
2022/04/08 02:53:51;;;;;;;1.60;1.30;;;;;;;13.63;51.52;98111.66;7729459;32;37202;-74
2022/04/08 02:58:07;;;;;;;1.48;1.30;;;;;;;13.09;57.93;98128.69;7736882;32;38981;-73
2022/04/08 03:02:23;;;;;;;4.00;1.35;;;;;;;13.32;58.89;98144.84;7736698;32;40852;-72
2022/04/08 03:06:40;;;;;;;1.37;1.20;;;;;;;12.81;61.03;98168.50;7710964;32;37863;-73
2022/04/08 03:10:57;;;;;;;1.23;1.10;;;;;;;12.52;62.89;98164.53;7709459;32;36995;-72
2022/04/08 03:15:13;;;;;;;1.23;1.12;;;;;;;12.21;63.99;98176.47;7711733;32;39345;-73
2022/04/08 03:19:29;;;;;;;1.92;1.48;;;;;;;12.27;64.64;98177.13;7713100;32;39944;-73
2022/04/08 03:23:45;;;;;;;1.48;1.25;;;;;;;12.47;64.25;98192.03;7711822;32;38622;-72
2022/04/08 03:28:01;;;;;;;1.40;1.08;;;;;;;12.61;63.00;98203.63;7713593;32;37835;-74
2022/04/08 03:32:17;;;;;;;3.22;1.25;;;;;;;12.59;63.40;98225.03;7712718;32;39397;-73
2022/04/08 03:36:34;;;;;;;1.20;1.15;;;;;;;12.93;62.46;98242.47;7712682;32;41075;-73
2022/04/08 03:40:50;;;;;;;1.35;1.10;;;;;;;12.67;62.10;98235.13;7712650;32;37833;-73
2022/04/08 03:45:06;;;;;;;1.10;1.10;;;;;;;12.48;64.72;98248.31;7713494;32;37004;-74
2022/04/08 03:49:26;;;;;;;1.30;1.20;;;;;;;12.24;63.90;98235.94;7712794;32;39998;-73
2022/04/08 03:53:42;;;;;;;1.30;0.90;;;;;;;12.63;61.78;98206.81;7711496;32;39720;-73
2022/04/08 03:57:58;;;;;;;1.10;0.98;;;;;;;12.45;59.98;98216.16;7720785;32;38448;-73
2022/04/08 04:02:15;;;;;;;0.88;0.88;;;;;;;11.89;60.40;98215.97;7739374;32;37167;-73
2022/04/08 04:06:31;;;;;;;2.17;1.12;;;;;;;12.10;60.21;98232.56;7739106;32;39374;-74
2022/04/08 04:10:48;;;;;;;1.87;1.08;;;;;;;12.10;58.99;98221.62;7738982;32;40883;-75
2022/04/08 04:15:08;;;;;;;5.57;0.98;;;;;;;11.88;57.05;98239.72;7738036;32;38927;-74
2022/04/08 04:19:25;;;;;;;2.12;1.00;;;;;;;12.40;56.19;98242.53;7739246;32;37779;-73
2022/04/08 04:23:41;;;;;;;2.78;0.95;;;;;;;12.19;53.97;98225.16;7738842;32;39315;-73
2022/04/08 04:27:57;;;;;;;0.90;0.90;;;;;;;12.22;54.49;98224.53;7730548;32;40698;-73
2022/04/08 04:32:13;;;;;;;1.65;1.08;;;;;;;11.74;50.58;98248.03;7712154;32;37856;-73
2022/04/08 04:36:29;;;;;;;2.60;1.20;;;;;;;12.14;50.69;98256.19;7735386;32;37109;-74
2022/04/08 04:40:45;;;;;;;2.80;1.08;;;;;;;12.51;48.95;98275.81;7738846;32;39393;-74
2022/04/08 04:45:01;;;;;;;1.52;1.05;;;;;;;12.31;49.59;98293.63;7738791;32;40022;-75
2022/04/08 04:49:17;;;;;;;1.37;1.20;;;;;;;12.46;49.31;98292.38;7738791;32;38105;-74
2022/04/08 04:53:33;;;;;;;1.25;1.10;;;;;;;11.93;48.19;98296.13;7738817;32;37092;-74
2022/04/08 04:57:49;;;;;;;2.53;1.05;;;;;;;12.30;46.33;98310.38;7738682;32;39432;-74
2022/04/08 05:02:06;;;;;;;2.37;1.20;;;;;;;12.33;41.48;98302.34;7738456;32;39885;-74
2022/04/08 05:06:22;;;;;;;5.12;1.20;;;;;;;12.32;42.38;98300.72;7713445;32;38698;-73
2022/04/08 05:10:40;;;;;;;3.15;1.12;;;;;;;12.60;41.17;98311.34;7711579;32;36504;-73
2022/04/08 05:14:57;;;;;;;6.12;1.33;;;;;;;12.47;42.25;98345.09;7711875;32;39272;-74
2022/04/08 05:19:13;;;;;;;2.65;1.27;;;;;;;12.67;40.79;98328.06;7711721;32;39945;-74
2022/04/08 05:23:29;;;;;;;2.67;1.30;;;;;;;12.51;41.48;98357.03;7711599;32;38761;-74
2022/04/08 05:27:45;;;;;;;3.25;1.20;;;;;;;12.01;42.44;98369.91;7711607;32;38131;-74
2022/04/08 05:32:01;;;;;;;3.25;1.50;;;;;;;12.41;42.47;98371.78;7711530;32;41043;-75
2022/04/08 05:36:18;;;;;;;1.52;1.20;;;;;;;11.70;43.74;98377.31;7734951;32;40824;-74
2022/04/08 05:40:34;;;;;;;3.62;1.40;;;;;;;12.27;42.44;98368.38;7737855;32;37819;-73
2022/04/08 05:44:50;;;;;;;2.45;1.20;;;;;;;12.31;42.96;98370.16;7738185;32;36971;-74
2022/04/08 05:49:06;;;;;;;1.95;1.33;;;;;;;12.77;42.41;98371.50;7737848;32;39360;-74
2022/04/08 05:53:26;;;;;;;2.22;1.12;;;;;;;12.69;41.78;98374.25;7738097;32;40620;-73
2022/04/08 05:57:53;;;;;;;3.87;1.27;;;;;;;12.73;40.69;98400.63;7737682;32;38771;-73
2022/04/08 06:02:09;;;;;;;2.37;1.35;;;;;;;12.85;41.46;98401.91;7684702;32;37073;-74
2022/04/08 06:06:25;;;;;;;2.85;1.40;;;;;;;12.82;41.83;98417.03;7736308;32;39384;-73
2022/04/08 06:10:45;;;;;;;3.37;1.50;;;;;;;12.85;41.70;98426.53;7737615;32;39877;-74
2022/04/08 06:15:01;;;;;;;4.10;1.40;;;;;;;12.86;40.10;98425.41;7737785;32;37853;-74
2022/04/08 06:19:17;;;;;;;2.33;1.23;;;;;;;13.04;40.38;98420.75;7737752;32;37856;-76
2022/04/08 06:23:33;;;;;;;3.90;1.55;;;;;;;12.61;39.65;98433.25;7737661;32;39509;-74
2022/04/08 06:28:02;;;;;;;4.25;1.30;;;;;;;12.65;40.92;98444.38;7737591;32;40902;-76
2022/04/08 06:32:19;;;;;;;2.80;1.23;;;;;;;12.89;41.91;98446.66;7736538;32;37920;-73
2022/04/08 06:36:35;;;;;;;3.40;1.30;;;;;;;12.95;41.80;98451.66;7710512;32;36991;-69
2022/04/08 06:40:51;;;;;;;4.87;1.67;;;;;;;12.68;41.15;98439.06;7710537;32;39313;-72
2022/04/08 06:45:08;;;;;;;8.15;1.58;;;;;;;12.90;40.54;98438.13;7710372;32;39953;-72
2022/04/08 06:49:27;;;;;;;3.40;1.70;;;;;;;12.62;40.79;98423.13;7710265;32;37807;-73
2022/04/08 06:53:43;;;;;;;4.65;1.20;;;;;;;12.40;41.51;98433.06;7710222;32;38034;-71
2022/04/08 06:58:00;;;;;;;4.65;1.55;;;;;;;12.85;40.72;98437.47;7710939;32;40026;-72
2022/04/08 07:02:16;;;;;;;4.75;1.37;;;;;;;12.97;39.92;98454.09;7709431;32;40738;-72
2022/04/08 07:06:32;;;;;;;3.20;1.67;;;;;;;13.06;39.54;98459.56;7696742;32;37760;-73
2022/04/08 07:10:48;;;;;;;5.18;1.40;;;;;;;13.26;39.93;98458.94;7709567;32;36882;-73
2022/04/08 07:15:06;;;;;;;2.97;1.37;;;;;;;12.32;41.58;98470.16;7709792;32;39893;-74
2022/04/08 07:19:25;;;;;;;3.17;1.20;;;;;;;12.95;40.78;98476.28;7708341;32;40677;-72
2022/04/08 07:23:41;;;;;;;3.42;1.35;;;;;;;13.23;39.22;98492.41;7709304;32;37861;-72
2022/04/08 07:28:00;;;;;;;4.70;1.33;;;;;;;13.14;39.89;98510.72;7709102;32;36804;-73
2022/04/08 07:32:20;;;;;;;2.67;1.40;;;;;;;12.77;41.75;98534.78;7708853;32;39306;-73
2022/04/08 07:36:36;;;;;;;3.28;1.30;;;;;;;12.96;40.20;98548.19;7735664;32;39735;-73
2022/04/08 07:40:53;;;;;;;3.47;1.95;;;;;;;12.74;39.76;98541.69;7734314;32;37829;-73
2022/04/08 07:45:09;;;;;;;5.57;1.45;;;;;;;12.75;41.91;98532.38;7735423;32;36480;-73
2022/04/08 07:49:25;;;;;;;6.03;1.85;;;;;;;13.43;40.34;98547.66;7732884;32;39535;-74
2022/04/08 07:53:42;;;;;;;4.80;1.60;;;;;;;13.56;38.80;98540.44;7735294;32;40762;-74
2022/04/08 07:57:58;;;;;;;2.03;1.50;;;;;;;13.36;37.23;98545.41;7735319;32;37877;-73
2022/04/08 08:02:14;;;;;;;4.87;1.50;;;;;;;13.56;37.54;98549.44;7738230;32;37797;-73
2022/04/08 08:06:36;;;;;;;4.00;1.60;;;;;;;13.83;36.50;98559.28;7711548;32;39354;-74
2022/04/08 08:10:54;;;;;;;4.00;1.50;;;;;;;13.59;38.23;98561.69;7702995;32;258430;-73
2022/04/08 08:15:11;;;;;;;4.10;1.20;;;;;;;13.25;36.17;98571.44;7712280;32;37545;-76
2022/04/08 08:19:28;;;;;;;2.83;1.23;;;;;;;13.50;34.85;98557.03;7711122;32;38021;-76
2022/04/08 08:23:44;;;;;;;2.17;1.23;;;;;;;13.80;35.29;98581.84;7711089;32;40225;-73
2022/04/08 08:28:04;;;;;;;1.20;1.10;;;;;;;13.24;35.09;98586.25;7712206;32;39701;-73
2022/04/08 08:32:21;;;;;;;4.30;1.62;;;;;;;13.10;36.40;98587.19;7713252;32;37197;-74
2022/04/08 08:36:37;;;;;;;3.90;1.50;;;;;;;13.95;34.54;98576.97;7738852;32;37822;-73
2022/04/08 08:40:55;;;;;;;4.78;1.60;;;;;;;13.48;36.26;98592.09;7738241;32;40151;-73
2022/04/08 08:45:13;;;;;;;5.18;1.30;;;;;;;13.32;36.59;98577.28;7737611;32;39861;-75
2022/04/08 08:49:31;;;;;;;2.85;1.30;;;;;;;13.47;36.74;98590.50;7738708;32;37875;-74
2022/04/08 08:53:47;;;;;;;2.20;1.30;;;;;;;13.74;36.23;98593.28;7737075;32;36263;-76
2022/04/08 08:58:03;;;;;;;2.92;1.30;;;;;;;14.04;35.23;98603.25;7735995;32;39384;-74
2022/04/08 09:02:21;;;;;;;2.12;1.33;;;;;;;13.32;35.28;98626.56;7735441;32;40020;-78
2022/04/08 09:06:41;;;;;;;3.28;1.50;;;;;;;13.21;35.79;98638.88;7710586;32;37935;-74
2022/04/08 09:10:57;;;;;;;2.58;1.20;;;;;;;13.20;36.48;98624.41;7711138;32;37331;-76
2022/04/08 09:15:14;;;;;;;4.60;1.45;;;;;;;13.10;36.42;98614.53;7711633;32;39367;-74
2022/04/08 09:19:33;;;;;;;3.45;1.60;;;;;;;13.11;37.20;98632.56;7711706;32;41286;-73
2022/04/08 09:23:50;;;;;;;7.95;1.73;;;;;;;12.88;37.61;98642.81;7711524;32;38660;-73
2022/04/08 09:28:08;;;;;;;4.37;1.60;;;;;;;12.68;38.29;98635.94;7711566;32;37737;-75
2022/04/08 09:32:27;;;;;;;2.58;1.20;;;;;;;12.81;37.71;98627.94;7713680;32;40079;-74
2022/04/08 09:36:44;;;;;;;1.75;1.12;;;;;;;13.11;36.52;98621.63;7738303;32;39912;-72
2022/04/08 09:41:02;;;;;;;3.72;1.40;;;;;;;13.57;34.10;98619.50;7738067;32;37821;-74
2022/04/08 09:45:32;;;;;;;2.20;1.20;;;;;;;13.65;35.32;98612.44;7738255;32;36763;-74
2022/04/08 09:49:48;;;;;;;2.53;1.02;;;;;;;14.13;33.03;98638.06;7738133;32;40040;-74
2022/04/08 09:54:12;;;;;;;3.87;1.25;;;;;;;14.49;33.72;98612.19;7738000;32;39943;-71
2022/04/08 09:58:31;;;;;;;2.67;1.05;;;;;;;14.52;31.60;98598.66;7738035;32;38598;-68
2022/04/08 10:02:51;;;;;;;3.50;1.20;;;;;;;14.97;32.05;98597.38;7732416;32;37288;-72
2022/04/08 10:07:08;;;;;;;2.08;1.12;;;;;;;15.01;30.00;98585.41;7711227;32;39465;-75
2022/04/08 10:11:57;;;;;;;2.05;1.30;;;;;;;15.68;30.39;98579.34;7710397;32;39822;-74
2022/04/08 10:16:16;;;;;;;6.47;1.15;;;;;;;15.91;27.62;98590.84;7710874;32;37896;-74
2022/04/08 10:20:37;;;;;;;3.67;1.20;;;;;;;15.50;28.20;98570.44;7710912;32;37347;-75
2022/04/08 10:24:57;;;;;;;2.97;1.15;;;;;;;16.85;28.46;98537.91;7710310;32;39584;-74
2022/04/08 10:29:13;;;;;;;2.20;1.30;;;;;;;17.06;27.32;98539.75;7710680;32;40762;-74
2022/04/08 10:33:31;;;;;;;3.30;1.20;;;;;;;17.52;24.88;98540.34;7720005;32;38683;-74
2022/04/08 10:38:04;;;;;;;3.15;1.08;;;;;;;17.59;26.28;98535.06;7737448;32;37337;-74
2022/04/08 10:42:22;;;;;;;3.35;1.27;;;;;;;18.19;25.73;98535.16;7736160;32;39333;-73
2022/04/08 10:46:51;;;;;;;1.05;0.80;;;;;;;18.05;23.36;98531.22;7735196;32;40210;-73
2022/04/08 10:51:13;;;;;;;3.35;0.95;;;;;;;17.45;22.17;98529.94;7721654;32;37853;-74
2022/04/08 10:55:29;;;;;;;2.53;1.08;;;;;;;17.98;22.20;98531.81;7705780;32;37107;-75
2022/04/08 10:59:57;;;;;;;2.35;0.93;;;;;;;18.17;24.75;98534.72;7708851;32;39337;-74
2022/04/08 11:04:19;;;;;;;4.18;1.33;;;;;;;18.63;23.20;98534.31;7699595;32;40047;-73
2022/04/08 11:08:35;;;;;;;1.12;0.70;;;;;;;17.68;22.32;98545.09;7705826;32;37900;-75
2022/04/08 11:12:53;;;;;;;2.10;1.00;;;;;;;17.80;23.18;98553.37;7688550;32;37975;-74
2022/04/08 11:17:10;;;;;;;1.70;0.95;;;;;;;16.98;22.98;98573.69;7682662;32;40168;-77
2022/04/08 11:21:28;;;;;;;2.33;1.10;;;;;;;17.49;22.31;98587.88;7685321;32;40115;-77
2022/04/08 11:25:44;;;;;;;3.10;0.98;;;;;;;16.94;23.33;98578.28;7682382;32;37813;-75
2022/04/08 11:30:00;;;;;;;2.67;0.75;;;;;;;17.82;23.50;98581.38;7705979;32;36977;-74
2022/04/08 11:34:16;;;;;;;3.95;1.02;;;;;;;17.35;23.76;98562.63;7709616;32;39306;-74
2022/04/08 11:38:33;;;;;;;3.65;0.88;;;;;;;17.19;22.11;98560.59;7711466;32;40663;-75
2022/04/08 11:43:13;;;;;;;3.42;1.00;;;;;;;17.65;23.65;98571.44;7714310;32;38301;-72
2022/04/08 11:47:33;;;;;;;3.35;1.15;;;;;;;17.52;22.80;98559.63;7712613;32;37203;-74
2022/04/08 11:51:59;;;;;;;1.10;0.80;;;;;;;18.05;21.40;98536.75;7716238;32;39053;-74
2022/04/08 11:56:28;;;;;;;3.70;0.85;;;;;;;18.29;22.98;98538.56;7710622;32;39909;-73
2022/04/08 12:00:46;;;;;;;3.72;1.02;;;;;;;17.91;22.31;98540.69;7710642;32;37908;-73
2022/04/08 12:05:03;;;;;;;3.65;0.82;;;;;;;17.45;24.43;98553.91;7711302;32;36543;-73
2022/04/08 12:09:38;;;;;;;1.23;0.65;;;;;;;17.65;25.16;98547.41;7712444;32;39963;-75
2022/04/08 12:13:56;;;;;;;4.07;1.00;;;;;;;16.65;25.92;98560.81;7711862;32;39839;-71
2022/04/08 12:18:19;;;;;;;1.90;0.80;;;;;;;16.20;28.52;98553.37;7712348;32;39761;-74
2022/04/08 12:22:37;;;;;;;4.97;1.00;;;;;;;16.20;29.66;98553.37;7712355;32;37808;-73
2022/04/08 12:26:54;;;;;;;2.95;1.00;;;;;;;16.37;28.86;98533.94;7712189;32;40150;-75
2022/04/08 12:31:14;;;;;;;4.10;1.10;;;;;;;16.41;28.34;98532.09;7712118;32;39984;-74
2022/04/08 12:35:31;;;;;;;5.18;0.85;;;;;;;15.89;29.97;98524.41;7735392;32;37925;-75
2022/04/08 12:39:47;;;;;;;2.28;0.80;;;;;;;16.39;28.86;98514.34;7737308;32;37302;-77
2022/04/08 12:44:04;;;;;;;4.40;1.33;;;;;;;16.43;29.79;98516.06;7711891;32;39668;-76
2022/04/08 12:48:20;;;;;;;5.03;1.12;;;;;;;16.47;29.10;98511.50;7711523;32;40030;-75
2022/04/08 12:52:36;;;;;;;10.60;1.37;;;;;;;16.71;28.89;98504.38;7711586;32;37840;-75
2022/04/08 12:56:52;;;;;;;4.97;0.93;;;;;;;16.10;31.57;98508.66;7711748;32;37296;-75
2022/04/08 13:01:08;;;;;;;2.35;1.20;;;;;;;16.75;30.03;98499.81;7711798;32;39411;-75
2022/04/08 13:05:24;;;;;;;1.65;0.90;;;;;;;16.20;30.32;98490.13;7711623;32;40126;-75
2022/04/08 13:09:40;;;;;;;7.07;1.30;;;;;;;16.22;30.98;98487.84;7711536;32;38749;-73
2022/04/08 13:13:56;;;;;;;2.65;1.02;;;;;;;16.45;31.63;98490.97;7711361;32;36912;-75
2022/04/08 13:18:12;;;;;;;4.03;1.33;;;;;;;16.26;30.98;98483.25;7718712;32;39137;-75
2022/04/08 13:28:10;;;;;;;1.15;0.90;;;;;;;16.56;31.49;98466.53;7672110;32;38087;-75
2022/04/08 13:32:27;;;;;;;2.58;1.02;;;;;;;17.05;31.46;98455.53;7693573;32;37546;-75
2022/04/08 13:36:44;;;;;;;2.97;0.93;;;;;;;17.37;29.99;98450.19;7701663;32;40659;-75
2022/04/08 13:41:01;;;;;;;1.75;0.65;;;;;;;17.41;30.06;98449.13;7697564;32;40823;-76
2022/04/08 13:45:17;;;;;;;3.37;1.20;;;;;;;17.59;29.42;98446.87;7697441;32;37986;-75
2022/04/08 13:49:33;;;;;;;0.95;0.90;;;;;;;17.63;29.93;98433.19;7697474;32;36477;-77
2022/04/08 13:53:51;;;;;;;3.58;1.10;;;;;;;17.94;29.15;98410.41;7726521;32;39601;-77
2022/04/08 13:58:07;;;;;;;1.77;1.10;;;;;;;18.64;27.69;98400.66;7716467;32;38420;-75
2022/04/08 14:02:23;;;;;;;6.72;1.37;;;;;;;18.47;28.10;98387.25;7722219;32;38097;-77
2022/04/08 14:06:39;;;;;;;4.75;1.58;;;;;;;18.81;28.12;98373.81;7735700;32;35821;-76
2022/04/08 14:10:55;;;;;;;5.20;1.52;;;;;;;18.19;27.77;98371.63;7723709;32;39310;-75
2022/04/08 14:15:11;;;;;;;2.12;1.30;;;;;;;18.94;27.62;98361.53;7735079;32;40835;-75
2022/04/08 14:19:33;;;;;;;3.83;1.73;;;;;;;18.66;28.21;98356.16;7732553;32;38435;-75
2022/04/08 14:23:50;;;;;;;5.40;1.42;;;;;;;18.87;27.90;98339.28;7731947;32;37769;-76
2022/04/08 14:28:06;;;;;;;5.12;1.65;;;;;;;18.06;29.12;98339.78;7721157;32;38831;-76
2022/04/08 14:32:22;;;;;;;3.70;1.60;;;;;;;17.82;29.38;98327.78;7735098;32;40773;-75
2022/04/08 14:36:38;;;;;;;2.50;1.45;;;;;;;18.10;29.88;98335.19;7716834;32;38713;-75
2022/04/08 14:40:55;;;;;;;3.22;1.42;;;;;;;17.21;30.64;98307.72;7713245;32;38237;-75
2022/04/08 14:45:11;;;;;;;2.22;1.33;;;;;;;17.08;31.04;98297.91;7736491;32;39479;-75
2022/04/08 14:49:28;;;;;;;2.35;1.37;;;;;;;16.75;31.54;98292.59;7731896;32;40823;-76
2022/04/08 14:53:45;;;;;;;2.87;1.20;;;;;;;17.02;31.45;98272.59;7708782;32;38364;-75
2022/04/08 14:58:02;;;;;;;4.55;1.60;;;;;;;17.29;31.14;98270.13;7708844;32;37744;-74
2022/04/08 15:02:19;;;;;;;3.60;1.50;;;;;;;17.45;30.74;98259.12;7709528;32;40117;-74
2022/04/08 15:06:35;;;;;;;7.53;1.77;;;;;;;17.19;31.14;98267.91;7696955;32;39633;-76
2022/04/08 15:10:51;;;;;;;3.12;1.55;;;;;;;16.79;31.50;98264.03;7724050;32;37583;-75
2022/04/08 15:15:08;;;;;;;6.00;1.40;;;;;;;16.47;32.38;98274.94;7712341;32;37045;-75
2022/04/08 15:19:24;;;;;;;10.52;3.22;;;;;;;16.74;32.24;98261.53;7712028;32;40107;-74
2022/04/08 15:23:41;;;;;;;7.43;3.47;;;;;;;16.46;32.62;98262.31;7712452;32;39612;-77
2022/04/08 15:27:57;;;;;;;2.60;1.40;;;;;;;16.23;33.26;98247.47;7700409;32;38611;-74
2022/04/08 15:32:13;;;;;;;5.30;2.10;;;;;;;16.48;33.35;98240.75;7723930;32;37256;-74
2022/04/08 15:36:29;;;;;;;2.45;1.70;;;;;;;16.52;32.66;98249.94;7721482;32;40082;-75
2022/04/08 15:40:45;;;;;;;4.60;2.67;;;;;;;16.61;33.14;98241.53;7711698;32;40028;-77
2022/04/08 15:45:02;;;;;;;12.60;6.87;;;;;;;16.56;33.71;98240.97;7735902;32;37894;-74
2022/04/08 15:49:18;;;;;;;11.68;4.43;;;;;;;16.75;33.52;98229.31;7713844;32;37286;-73
2022/04/08 15:53:34;;;;;;;5.18;2.33;;;;;;;17.07;33.29;98219.22;7730015;32;39421;-77
2022/04/08 15:57:51;;;;;;;8.52;2.47;;;;;;;17.15;32.93;98193.47;7709848;32;40499;-75
2022/04/08 16:02:07;;;;;;;6.30;2.60;;;;;;;17.29;33.67;98211.50;7717947;32;38670;-74
2022/04/08 16:06:24;;;;;;;11.43;3.40;;;;;;;17.21;34.21;98207.75;7708647;32;37584;-78
2022/04/08 16:10:40;;;;;;;10.27;3.15;;;;;;;16.99;35.42;98185.19;7715193;32;39299;-75
2022/04/08 16:14:56;;;;;;;11.93;3.67;;;;;;;17.38;35.28;98190.09;7728531;32;39865;-74
2022/04/08 16:19:12;;;;;;;9.40;3.33;;;;;;;16.95;36.36;98178.78;7737898;32;37856;-74
2022/04/08 16:23:28;;;;;;;8.60;3.20;;;;;;;17.15;36.20;98176.94;7737880;32;37222;-75
2022/04/08 16:27:44;;;;;;;7.53;3.80;;;;;;;17.02;37.07;98183.69;7733318;32;39925;-74
2022/04/08 16:32:00;;;;;;;8.43;4.25;;;;;;;17.18;36.52;98190.00;7711028;32;39771;-72
2022/04/08 16:36:21;;;;;;;8.23;3.90;;;;;;;16.62;38.83;98182.59;7711732;32;37917;-74
2022/04/08 16:40:39;;;;;;;6.78;3.17;;;;;;;16.74;39.02;98176.25;7711311;32;38066;-74
2022/04/08 16:44:55;;;;;;;8.95;4.00;;;;;;;17.07;38.28;98183.41;7710418;32;39402;-76
2022/04/08 16:49:11;;;;;;;11.35;4.55;;;;;;;16.82;39.53;98169.00;7711560;32;39581;-74
2022/04/08 16:53:28;;;;;;;10.27;4.22;;;;;;;16.95;39.72;98172.50;7710450;32;38654;-74
2022/04/08 16:57:44;;;;;;;10.30;3.75;;;;;;;16.58;41.06;98164.41;7711417;32;37360;-73
2022/04/08 17:02:05;;;;;;;9.77;4.20;;;;;;;16.40;41.46;98161.97;7727115;32;39870;-73
2022/04/08 17:06:21;;;;;;;12.35;4.28;;;;;;;17.03;39.74;98166.03;7738176;32;41610;-75
2022/04/08 17:10:37;;;;;;;8.75;3.67;;;;;;;16.43;41.22;98158.50;7737437;32;38945;-77
2022/04/08 17:14:53;;;;;;;7.82;3.28;;;;;;;17.03;39.72;98157.75;7736287;32;37243;-75
2022/04/08 17:19:09;;;;;;;9.23;4.10;;;;;;;17.25;39.46;98143.38;7738257;32;39369;-74
2022/04/08 17:23:26;;;;;;;9.27;4.37;;;;;;;16.71;41.05;98138.41;7737154;32;40409;-75
2022/04/08 17:27:42;;;;;;;9.80;3.60;;;;;;;17.27;40.04;98132.78;7737880;32;38715;-75
2022/04/08 17:31:58;;;;;;;7.25;3.42;;;;;;;17.17;40.92;98119.56;7735737;32;37979;-75
2022/04/08 17:36:15;;;;;;;9.30;3.67;;;;;;;17.18;40.81;98121.16;7737777;32;40116;-75
2022/04/08 17:40:33;;;;;;;11.18;3.65;;;;;;;17.17;40.48;98116.81;7717022;32;39886;-75
2022/04/08 17:44:49;;;;;;;11.57;4.15;;;;;;;17.23;40.63;98111.81;7683505;32;36892;-75
2022/04/08 17:49:06;;;;;;;9.18;3.65;;;;;;;17.54;40.28;98105.47;7711006;32;37206;-76
2022/04/08 17:53:22;;;;;;;36.22;15.88;;;;;;;17.44;41.04;98106.81;7709942;32;39300;-75
2022/04/08 17:57:38;;;;;;;10.85;3.83;;;;;;;17.29;41.54;98101.34;7719976;32;40799;-76
2022/04/08 18:01:55;;;;;;;7.18;3.50;;;;;;;17.55;40.82;98101.56;7712328;32;38925;-76
2022/04/08 18:06:12;;;;;;;6.90;3.35;;;;;;;17.54;41.24;98099.97;7695072;32;37002;-76
2022/04/08 18:10:28;;;;;;;6.78;2.78;;;;;;;17.53;41.62;98092.84;7698424;32;39315;-76
2022/04/08 18:14:46;;;;;;;10.05;3.28;;;;;;;17.60;41.75;98101.28;7695262;32;40809;-76
2022/04/08 18:19:03;;;;;;;6.10;2.72;;;;;;;17.63;41.59;98097.03;7695891;32;38061;-75
2022/04/08 18:23:19;;;;;;;11.90;2.97;;;;;;;17.74;41.35;98097.25;7707355;32;37040;-75
2022/04/08 18:27:36;;;;;;;7.85;2.70;;;;;;;17.76;41.56;98090.19;7691938;32;39497;-75
2022/04/08 18:31:56;;;;;;;6.40;2.92;;;;;;;17.53;41.97;98079.09;7698177;32;39980;-76
2022/04/08 18:36:25;;;;;;;10.30;2.60;;;;;;;17.91;41.09;98088.59;7690289;32;38901;-77
2022/04/08 18:40:41;;;;;;;11.65;2.87;;;;;;;17.78;41.30;98081.56;7689271;32;37159;-77
2022/04/08 18:44:58;;;;;;;12.13;2.95;;;;;;;17.84;41.50;98071.88;7694719;32;40151;-77
2022/04/08 18:49:15;;;;;;;8.32;2.10;;;;;;;17.52;41.98;98074.72;7695307;32;39983;-76
2022/04/08 18:53:32;;;;;;;6.95;2.25;;;;;;;17.92;41.17;98070.91;7695964;32;38623;-76
2022/04/08 18:57:48;;;;;;;8.38;2.10;;;;;;;17.39;41.93;98070.50;7683714;32;37113;-74
2022/04/08 19:02:06;;;;;;;6.32;1.98;;;;;;;17.80;40.80;98068.25;7698609;32;39410;-76
2022/04/08 19:06:29;;;;;;;3.90;1.60;;;;;;;17.35;41.46;98053.91;7681984;32;40056;-76
2022/04/08 19:10:46;;;;;;;4.47;1.50;;;;;;;17.20;41.47;98044.50;7701392;32;38749;-73
2022/04/08 19:15:02;;;;;;;4.53;1.87;;;;;;;16.96;41.73;98051.03;7709630;32;37021;-77
2022/04/08 19:19:18;;;;;;;4.62;1.80;;;;;;;17.07;41.46;98048.53;7709804;32;39446;-76
2022/04/08 19:23:34;;;;;;;3.80;1.70;;;;;;;17.37;40.95;98039.78;7709553;32;40047;-75
2022/04/08 19:27:50;;;;;;;5.65;1.42;;;;;;;17.04;41.68;98021.69;7706845;32;37617;-77
2022/04/08 19:32:08;;;;;;;4.00;1.60;;;;;;;17.04;41.23;98044.53;7726546;32;36699;-76
2022/04/08 19:36:24;;;;;;;5.05;1.92;;;;;;;17.20;41.32;98033.50;7688726;32;39255;-76
2022/04/08 19:40:40;;;;;;;6.82;1.65;;;;;;;16.87;42.30;98048.47;7682494;32;40733;-76
2022/04/08 19:44:56;;;;;;;3.80;1.65;;;;;;;17.11;41.61;98041.16;7694338;32;38044;-75
2022/04/08 19:49:14;;;;;;;5.00;1.62;;;;;;;17.00;41.71;98035.37;7695095;32;37831;-78
2022/04/08 19:53:30;;;;;;;3.03;1.48;;;;;;;17.11;41.71;98030.16;7695827;32;40010;-76
2022/04/08 19:57:47;;;;;;;3.75;1.70;;;;;;;16.97;42.33;98033.38;7696631;32;40769;-77
2022/04/08 20:02:05;;;;;;;3.15;1.30;;;;;;;16.76;42.46;98044.59;7701912;32;36954;-75
2022/04/08 20:06:22;;;;;;;4.95;2.15;;;;;;;16.81;42.34;98027.03;7698482;32;37852;-76
2022/04/08 20:10:38;;;;;;;4.65;1.58;;;;;;;17.20;41.87;98030.75;7697777;32;39322;-77
2022/04/08 20:14:54;;;;;;;5.70;1.73;;;;;;;16.79;42.86;98005.38;7697638;32;40057;-76